sensor_id;sensor_type;location;lat;lon;timestamp;temperature;humidity
7445;DHT22;3764;48.126;11.594;2022-12-18T00:01:14;-3.70;99.90
7445;DHT22;3764;48.126;11.594;2022-12-18T00:03:42;-3.70;99.90
7445;DHT22;3764;48.126;11.594;2022-12-18T00:06:09;-3.70;99.90
7445;DHT22;3764;48.126;11.594;2022-12-18T00:08:36;-3.60;99.90
7445;DHT22;3764;48.126;11.594;2022-12-18T00:11:04;-3.50;99.90
7445;DHT22;3764;48.126;11.594;2022-12-18T00:13:31;-3.50;99.90
7445;DHT22;3764;48.126;11.594;2022-12-18T00:16:03;-3.40;99.90
7445;DHT22;3764;48.126;11.594;2022-12-18T00:18:31;-3.40;99.90
7445;DHT22;3764;48.126;11.594;2022-12-18T00:20:59;-3.30;99.90
7445;DHT22;3764;48.126;11.594;2022-12-18T00:23:26;-3.30;99.90
7445;DHT22;3764;48.126;11.594;2022-12-18T00:25:54;-3.20;99.90
7445;DHT22;3764;48.126;11.594;2022-12-18T00:28:21;-3.20;99.90
7445;DHT22;3764;48.126;11.594;2022-12-18T00:30:48;-3.30;99.90
7445;DHT22;3764;48.126;11.594;2022-12-18T00:33:18;-3.30;99.90
7445;DHT22;3764;48.126;11.594;2022-12-18T00:35:45;-3.40;99.90
7445;DHT22;3764;48.126;11.594;2022-12-18T00:38:12;-3.40;99.90
7445;DHT22;3764;48.126;11.594;2022-12-18T00:40:39;-3.40;99.90
7445;DHT22;3764;48.126;11.594;2022-12-18T00:43:07;-3.30;99.90
7445;DHT22;3764;48.126;11.594;2022-12-18T00:45:36;-3.30;99.90
7445;DHT22;3764;48.126;11.594;2022-12-18T00:48:04;-3.30;99.90
7445;DHT22;3764;48.126;11.594;2022-12-18T00:50:32;-3.30;99.90
7445;DHT22;3764;48.126;11.594;2022-12-18T00:53:00;-3.20;99.90
7445;DHT22;3764;48.126;11.594;2022-12-18T00:55:27;-3.20;99.90
7445;DHT22;3764;48.126;11.594;2022-12-18T00:57:54;-3.20;99.90
7445;DHT22;3764;48.126;11.594;2022-12-18T01:00:21;-3.10;99.90
7445;DHT22;3764;48.126;11.594;2022-12-18T01:02:49;-3.10;99.90
7445;DHT22;3764;48.126;11.594;2022-12-18T01:05:16;-3.10;99.90
7445;DHT22;3764;48.126;11.594;2022-12-18T01:07:44;-3.20;99.90
7445;DHT22;3764;48.126;11.594;2022-12-18T01:10:12;-3.30;99.90
7445;DHT22;3764;48.126;11.594;2022-12-18T01:12:39;-3.30;99.90
7445;DHT22;3764;48.126;11.594;2022-12-18T01:15:07;-3.30;99.90
7445;DHT22;3764;48.126;11.594;2022-12-18T01:17:35;-3.30;99.90
7445;DHT22;3764;48.126;11.594;2022-12-18T01:20:02;-3.30;99.90
7445;DHT22;3764;48.126;11.594;2022-12-18T01:22:29;-3.30;99.90
7445;DHT22;3764;48.126;11.594;2022-12-18T01:25:00;-3.20;99.90
7445;DHT22;3764;48.126;11.594;2022-12-18T01:27:27;-3.20;99.90
7445;DHT22;3764;48.126;11.594;2022-12-18T01:29:54;-3.20;99.90
7445;DHT22;3764;48.126;11.594;2022-12-18T01:32:22;-3.30;99.90
7445;DHT22;3764;48.126;11.594;2022-12-18T01:34:49;-3.30;99.90
7445;DHT22;3764;48.126;11.594;2022-12-18T01:37:16;-3.30;99.90
7445;DHT22;3764;48.126;11.594;2022-12-18T01:39:43;-3.40;99.90
7445;DHT22;3764;48.126;11.594;2022-12-18T01:42:13;-3.60;99.90
7445;DHT22;3764;48.126;11.594;2022-12-18T01:44:59;-3.60;99.90
7445;DHT22;3764;48.126;11.594;2022-12-18T01:47:30;-3.60;99.90
7445;DHT22;3764;48.126;11.594;2022-12-18T01:50:00;-3.60;99.90
7445;DHT22;3764;48.126;11.594;2022-12-18T01:52:31;-3.70;99.90
7445;DHT22;3764;48.126;11.594;2022-12-18T01:54:59;-3.70;99.90
7445;DHT22;3764;48.126;11.594;2022-12-18T01:57:29;-3.70;99.90
7445;DHT22;3764;48.126;11.594;2022-12-18T01:59:59;-3.70;99.90
7445;DHT22;3764;48.126;11.594;2022-12-18T02:02:28;-3.70;99.90
7445;DHT22;3764;48.126;11.594;2022-12-18T02:04:55;-3.70;99.90
7445;DHT22;3764;48.126;11.594;2022-12-18T02:07:29;-3.70;99.90
7445;DHT22;3764;48.126;11.594;2022-12-18T02:10:02;-3.70;99.90
7445;DHT22;3764;48.126;11.594;2022-12-18T02:12:40;-3.60;99.90
7445;DHT22;3764;48.126;11.594;2022-12-18T02:15:13;-3.50;99.90
7445;DHT22;3764;48.126;11.594;2022-12-18T02:17:45;-3.50;99.90
7445;DHT22;3764;48.126;11.594;2022-12-18T02:20:19;-3.50;99.90
7445;DHT22;3764;48.126;11.594;2022-12-18T02:23:05;-3.40;99.90
7445;DHT22;3764;48.126;11.594;2022-12-18T02:25:54;-3.40;99.90
7445;DHT22;3764;48.126;11.594;2022-12-18T02:28:29;-3.30;99.90
7445;DHT22;3764;48.126;11.594;2022-12-18T02:31:00;-3.30;99.90
7445;DHT22;3764;48.126;11.594;2022-12-18T02:33:29;-3.30;99.90
7445;DHT22;3764;48.126;11.594;2022-12-18T02:35:58;-3.30;99.90
7445;DHT22;3764;48.126;11.594;2022-12-18T02:38:27;-3.30;99.90
7445;DHT22;3764;48.126;11.594;2022-12-18T02:40:57;-3.30;99.90
7445;DHT22;3764;48.126;11.594;2022-12-18T02:43:24;-3.40;99.90
7445;DHT22;3764;48.126;11.594;2022-12-18T02:45:53;-3.40;99.90
7445;DHT22;3764;48.126;11.594;2022-12-18T02:48:24;-3.40;99.90
7445;DHT22;3764;48.126;11.594;2022-12-18T02:50:59;-3.40;99.90
7445;DHT22;3764;48.126;11.594;2022-12-18T02:53:33;-3.40;99.90
7445;DHT22;3764;48.126;11.594;2022-12-18T02:56:07;-3.50;99.90
7445;DHT22;3764;48.126;11.594;2022-12-18T02:58:42;-3.50;99.90
7445;DHT22;3764;48.126;11.594;2022-12-18T03:01:16;-3.50;99.90
7445;DHT22;3764;48.126;11.594;2022-12-18T03:03:47;-3.50;99.90
7445;DHT22;3764;48.126;11.594;2022-12-18T03:06:23;-3.40;99.90
7445;DHT22;3764;48.126;11.594;2022-12-18T03:08:56;-3.40;99.90
7445;DHT22;3764;48.126;11.594;2022-12-18T03:11:28;-3.50;99.90
7445;DHT22;3764;48.126;11.594;2022-12-18T03:14:15;-3.60;99.90
7445;DHT22;3764;48.126;11.594;2022-12-18T03:16:44;-3.70;99.90
7445;DHT22;3764;48.126;11.594;2022-12-18T03:19:15;-3.70;99.90
7445;DHT22;3764;48.126;11.594;2022-12-18T03:21:46;-3.80;99.90
7445;DHT22;3764;48.126;11.594;2022-12-18T03:24:15;-3.80;99.90
7445;DHT22;3764;48.126;11.594;2022-12-18T03:26:46;-3.80;99.90
7445;DHT22;3764;48.126;11.594;2022-12-18T03:29:18;-3.70;99.90
7445;DHT22;3764;48.126;11.594;2022-12-18T03:31:51;-3.70;99.90
7445;DHT22;3764;48.126;11.594;2022-12-18T03:34:25;-3.60;99.90
7445;DHT22;3764;48.126;11.594;2022-12-18T03:36:53;-3.60;99.90
7445;DHT22;3764;48.126;11.594;2022-12-18T03:39:20;-3.60;99.90
7445;DHT22;3764;48.126;11.594;2022-12-18T03:41:52;-3.60;99.90
7445;DHT22;3764;48.126;11.594;2022-12-18T03:44:28;-3.60;99.90
7445;DHT22;3764;48.126;11.594;2022-12-18T03:47:01;-3.50;99.90
7445;DHT22;3764;48.126;11.594;2022-12-18T03:49:35;-3.50;99.90
7445;DHT22;3764;48.126;11.594;2022-12-18T03:52:06;-3.50;99.90
7445;DHT22;3764;48.126;11.594;2022-12-18T03:54:36;-3.40;99.90
7445;DHT22;3764;48.126;11.594;2022-12-18T03:57:11;-3.40;99.90
7445;DHT22;3764;48.126;11.594;2022-12-18T03:59:40;-3.40;99.90
7445;DHT22;3764;48.126;11.594;2022-12-18T04:02:08;-3.40;99.90
7445;DHT22;3764;48.126;11.594;2022-12-18T04:04:37;-3.40;99.90
7445;DHT22;3764;48.126;11.594;2022-12-18T04:07:06;-3.30;99.90
7445;DHT22;3764;48.126;11.594;2022-12-18T04:09:35;-3.30;99.90
7445;DHT22;3764;48.126;11.594;2022-12-18T04:12:03;-3.40;99.90
7445;DHT22;3764;48.126;11.594;2022-12-18T04:14:32;-3.30;99.90
7445;DHT22;3764;48.126;11.594;2022-12-18T04:17:01;-3.30;99.90
7445;DHT22;3764;48.126;11.594;2022-12-18T04:19:28;-3.30;99.90
7445;DHT22;3764;48.126;11.594;2022-12-18T04:21:55;-3.30;99.90
7445;DHT22;3764;48.126;11.594;2022-12-18T04:24:22;-3.30;99.90
7445;DHT22;3764;48.126;11.594;2022-12-18T04:26:49;-3.30;99.90
7445;DHT22;3764;48.126;11.594;2022-12-18T04:29:16;-3.20;99.90
7445;DHT22;3764;48.126;11.594;2022-12-18T04:31:45;-3.30;99.90
7445;DHT22;3764;48.126;11.594;2022-12-18T04:34:12;-3.40;99.90
7445;DHT22;3764;48.126;11.594;2022-12-18T04:36:39;-3.40;99.90
7445;DHT22;3764;48.126;11.594;2022-12-18T04:39:06;-3.40;99.90
7445;DHT22;3764;48.126;11.594;2022-12-18T04:41:34;-3.50;99.90
7445;DHT22;3764;48.126;11.594;2022-12-18T04:44:01;-3.60;99.90
7445;DHT22;3764;48.126;11.594;2022-12-18T04:46:28;-3.50;99.90
7445;DHT22;3764;48.126;11.594;2022-12-18T04:48:56;-3.50;99.90
7445;DHT22;3764;48.126;11.594;2022-12-18T04:51:23;-3.40;99.90
7445;DHT22;3764;48.126;11.594;2022-12-18T04:53:50;-3.50;99.90
7445;DHT22;3764;48.126;11.594;2022-12-18T04:56:17;-3.60;99.90
7445;DHT22;3764;48.126;11.594;2022-12-18T04:58:45;-3.60;99.90
7445;DHT22;3764;48.126;11.594;2022-12-18T05:01:13;-3.50;99.90
7445;DHT22;3764;48.126;11.594;2022-12-18T05:03:40;-3.60;99.90
7445;DHT22;3764;48.126;11.594;2022-12-18T05:06:09;-3.60;99.90
7445;DHT22;3764;48.126;11.594;2022-12-18T05:08:36;-3.70;99.90
7445;DHT22;3764;48.126;11.594;2022-12-18T05:11:05;-3.80;99.90
7445;DHT22;3764;48.126;11.594;2022-12-18T05:13:33;-3.80;99.90
7445;DHT22;3764;48.126;11.594;2022-12-18T05:16:01;-3.80;99.90
7445;DHT22;3764;48.126;11.594;2022-12-18T05:18:29;-3.80;99.90
7445;DHT22;3764;48.126;11.594;2022-12-18T05:20:56;-3.70;99.90
7445;DHT22;3764;48.126;11.594;2022-12-18T05:23:25;-3.80;99.90
7445;DHT22;3764;48.126;11.594;2022-12-18T05:25:53;-3.70;99.90
7445;DHT22;3764;48.126;11.594;2022-12-18T05:28:21;-3.70;99.90
7445;DHT22;3764;48.126;11.594;2022-12-18T05:30:48;-3.70;99.90
7445;DHT22;3764;48.126;11.594;2022-12-18T05:33:16;-3.70;99.90
7445;DHT22;3764;48.126;11.594;2022-12-18T05:35:43;-3.70;99.90
7445;DHT22;3764;48.126;11.594;2022-12-18T05:38:11;-3.70;99.90
7445;DHT22;3764;48.126;11.594;2022-12-18T05:40:41;-3.70;99.90
7445;DHT22;3764;48.126;11.594;2022-12-18T05:43:09;-3.70;99.90
7445;DHT22;3764;48.126;11.594;2022-12-18T05:45:37;-3.60;99.90
7445;DHT22;3764;48.126;11.594;2022-12-18T05:48:05;-3.60;99.90
7445;DHT22;3764;48.126;11.594;2022-12-18T05:50:34;-3.60;99.90
7445;DHT22;3764;48.126;11.594;2022-12-18T05:53:01;-3.60;99.90
7445;DHT22;3764;48.126;11.594;2022-12-18T05:55:28;-3.70;99.90
7445;DHT22;3764;48.126;11.594;2022-12-18T05:57:57;-3.70;99.90
7445;DHT22;3764;48.126;11.594;2022-12-18T06:00:24;-3.80;99.90
7445;DHT22;3764;48.126;11.594;2022-12-18T06:02:51;-3.90;99.90
7445;DHT22;3764;48.126;11.594;2022-12-18T06:05:18;-4.00;99.90
7445;DHT22;3764;48.126;11.594;2022-12-18T06:07:45;-3.90;99.90
7445;DHT22;3764;48.126;11.594;2022-12-18T06:10:12;-3.90;99.90
7445;DHT22;3764;48.126;11.594;2022-12-18T06:12:40;-3.90;99.90
7445;DHT22;3764;48.126;11.594;2022-12-18T06:15:09;-3.90;99.90
7445;DHT22;3764;48.126;11.594;2022-12-18T06:17:36;-3.90;99.90
7445;DHT22;3764;48.126;11.594;2022-12-18T06:20:04;-3.80;99.90
7445;DHT22;3764;48.126;11.594;2022-12-18T06:22:32;-3.70;99.90
7445;DHT22;3764;48.126;11.594;2022-12-18T06:25:00;-3.80;99.90
7445;DHT22;3764;48.126;11.594;2022-12-18T06:27:27;-3.80;99.90
7445;DHT22;3764;48.126;11.594;2022-12-18T06:29:54;-3.80;99.90
7445;DHT22;3764;48.126;11.594;2022-12-18T06:32:23;-3.80;99.90
7445;DHT22;3764;48.126;11.594;2022-12-18T06:34:50;-3.90;99.90
7445;DHT22;3764;48.126;11.594;2022-12-18T06:37:17;-3.90;99.90
7445;DHT22;3764;48.126;11.594;2022-12-18T06:39:44;-3.90;99.90
7445;DHT22;3764;48.126;11.594;2022-12-18T06:42:11;-3.80;99.90
7445;DHT22;3764;48.126;11.594;2022-12-18T06:44:39;-3.80;99.90
7445;DHT22;3764;48.126;11.594;2022-12-18T06:47:06;-3.70;99.90
7445;DHT22;3764;48.126;11.594;2022-12-18T06:49:34;-3.60;99.90
7445;DHT22;3764;48.126;11.594;2022-12-18T06:52:01;-3.70;99.90
7445;DHT22;3764;48.126;11.594;2022-12-18T06:54:28;-3.60;99.90
7445;DHT22;3764;48.126;11.594;2022-12-18T06:56:55;-3.60;99.90
7445;DHT22;3764;48.126;11.594;2022-12-18T06:59:22;-3.60;99.90
7445;DHT22;3764;48.126;11.594;2022-12-18T07:01:49;-3.80;99.90
7445;DHT22;3764;48.126;11.594;2022-12-18T07:04:16;-3.80;99.90
7445;DHT22;3764;48.126;11.594;2022-12-18T07:06:45;-3.90;99.90
7445;DHT22;3764;48.126;11.594;2022-12-18T07:09:12;-3.90;99.90
7445;DHT22;3764;48.126;11.594;2022-12-18T07:11:39;-3.90;99.90
7445;DHT22;3764;48.126;11.594;2022-12-18T07:14:07;-3.90;99.90
7445;DHT22;3764;48.126;11.594;2022-12-18T07:16:34;-4.00;99.90
7445;DHT22;3764;48.126;11.594;2022-12-18T07:19:01;-4.10;99.90
7445;DHT22;3764;48.126;11.594;2022-12-18T07:21:28;-4.10;99.90
7445;DHT22;3764;48.126;11.594;2022-12-18T07:23:57;-4.10;99.90
7445;DHT22;3764;48.126;11.594;2022-12-18T07:26:24;-4.00;99.90
7445;DHT22;3764;48.126;11.594;2022-12-18T07:28:54;-4.00;99.90
7445;DHT22;3764;48.126;11.594;2022-12-18T07:31:22;-4.00;99.90
7445;DHT22;3764;48.126;11.594;2022-12-18T07:33:49;-4.00;99.90
7445;DHT22;3764;48.126;11.594;2022-12-18T07:36:17;-3.90;99.90
7445;DHT22;3764;48.126;11.594;2022-12-18T07:38:46;-3.80;99.90
7445;DHT22;3764;48.126;11.594;2022-12-18T07:41:15;-3.80;99.90
7445;DHT22;3764;48.126;11.594;2022-12-18T07:43:44;-3.80;99.90
7445;DHT22;3764;48.126;11.594;2022-12-18T07:46:12;-3.80;99.90
7445;DHT22;3764;48.126;11.594;2022-12-18T07:48:40;-3.80;99.90
7445;DHT22;3764;48.126;11.594;2022-12-18T07:51:07;-3.80;99.90
7445;DHT22;3764;48.126;11.594;2022-12-18T07:53:35;-3.80;99.90
7445;DHT22;3764;48.126;11.594;2022-12-18T07:56:04;-3.80;99.90
7445;DHT22;3764;48.126;11.594;2022-12-18T07:58:36;-3.80;99.90
7445;DHT22;3764;48.126;11.594;2022-12-18T08:01:04;-3.70;99.90
7445;DHT22;3764;48.126;11.594;2022-12-18T08:03:32;-3.70;99.90
7445;DHT22;3764;48.126;11.594;2022-12-18T08:06:00;-3.70;99.90
7445;DHT22;3764;48.126;11.594;2022-12-18T08:08:27;-3.80;99.90
7445;DHT22;3764;48.126;11.594;2022-12-18T08:10:54;-3.90;99.90
7445;DHT22;3764;48.126;11.594;2022-12-18T08:13:22;-4.00;99.90
7445;DHT22;3764;48.126;11.594;2022-12-18T08:15:57;-4.00;99.90
7445;DHT22;3764;48.126;11.594;2022-12-18T08:18:24;-4.00;99.90
7445;DHT22;3764;48.126;11.594;2022-12-18T08:20:51;-4.00;99.90
7445;DHT22;3764;48.126;11.594;2022-12-18T08:23:19;-4.10;99.90
7445;DHT22;3764;48.126;11.594;2022-12-18T08:25:46;-4.20;99.90
7445;DHT22;3764;48.126;11.594;2022-12-18T08:28:13;-4.20;99.90
7445;DHT22;3764;48.126;11.594;2022-12-18T08:30:40;-4.30;99.90
7445;DHT22;3764;48.126;11.594;2022-12-18T08:33:09;-4.20;99.90
7445;DHT22;3764;48.126;11.594;2022-12-18T08:35:36;-4.20;99.90
7445;DHT22;3764;48.126;11.594;2022-12-18T08:38:04;-4.10;99.90
7445;DHT22;3764;48.126;11.594;2022-12-18T08:40:31;-4.20;99.90
7445;DHT22;3764;48.126;11.594;2022-12-18T08:42:58;-4.20;99.90
7445;DHT22;3764;48.126;11.594;2022-12-18T08:45:43;-4.10;99.90
7445;DHT22;3764;48.126;11.594;2022-12-18T08:48:11;-4.00;99.90
7445;DHT22;3764;48.126;11.594;2022-12-18T08:50:38;-3.90;99.90
7445;DHT22;3764;48.126;11.594;2022-12-18T08:53:05;-4.00;99.90
7445;DHT22;3764;48.126;11.594;2022-12-18T08:55:32;-4.10;99.90
7445;DHT22;3764;48.126;11.594;2022-12-18T08:57:59;-4.10;99.90
7445;DHT22;3764;48.126;11.594;2022-12-18T09:00:27;-4.10;99.90
7445;DHT22;3764;48.126;11.594;2022-12-18T09:02:54;-4.20;99.90
7445;DHT22;3764;48.126;11.594;2022-12-18T09:05:22;-4.30;99.90
7445;DHT22;3764;48.126;11.594;2022-12-18T09:07:49;-4.40;99.90
7445;DHT22;3764;48.126;11.594;2022-12-18T09:10:16;-4.40;99.90
7445;DHT22;3764;48.126;11.594;2022-12-18T09:12:43;-4.30;99.90
7445;DHT22;3764;48.126;11.594;2022-12-18T09:15:10;-4.30;99.90
7445;DHT22;3764;48.126;11.594;2022-12-18T09:17:38;-4.30;99.90
7445;DHT22;3764;48.126;11.594;2022-12-18T09:20:06;-4.40;99.90
7445;DHT22;3764;48.126;11.594;2022-12-18T09:22:34;-4.30;99.90
7445;DHT22;3764;48.126;11.594;2022-12-18T09:25:01;-4.30;99.90
7445;DHT22;3764;48.126;11.594;2022-12-18T09:27:28;-4.20;99.90
7445;DHT22;3764;48.126;11.594;2022-12-18T09:29:56;-4.30;99.90
7445;DHT22;3764;48.126;11.594;2022-12-18T09:32:23;-4.20;99.90
7445;DHT22;3764;48.126;11.594;2022-12-18T09:34:50;-4.20;99.90
7445;DHT22;3764;48.126;11.594;2022-12-18T09:37:17;-4.10;99.90
7445;DHT22;3764;48.126;11.594;2022-12-18T09:39:45;-4.10;99.90
7445;DHT22;3764;48.126;11.594;2022-12-18T09:42:17;-4.10;99.90
7445;DHT22;3764;48.126;11.594;2022-12-18T09:44:49;-4.20;99.90
7445;DHT22;3764;48.126;11.594;2022-12-18T09:47:20;-4.30;99.90
7445;DHT22;3764;48.126;11.594;2022-12-18T09:49:51;-4.30;99.90
7445;DHT22;3764;48.126;11.594;2022-12-18T09:52:25;-4.40;99.90
7445;DHT22;3764;48.126;11.594;2022-12-18T09:54:58;-4.30;99.90
7445;DHT22;3764;48.126;11.594;2022-12-18T09:57:26;-4.30;99.90
7445;DHT22;3764;48.126;11.594;2022-12-18T09:59:56;-4.30;99.90
7445;DHT22;3764;48.126;11.594;2022-12-18T10:02:26;-4.20;99.90
7445;DHT22;3764;48.126;11.594;2022-12-18T10:05:04;-4.10;99.90
7445;DHT22;3764;48.126;11.594;2022-12-18T10:07:40;-4.00;99.90
7445;DHT22;3764;48.126;11.594;2022-12-18T10:10:18;-3.90;99.90
7445;DHT22;3764;48.126;11.594;2022-12-18T10:12:53;-3.90;99.90
7445;DHT22;3764;48.126;11.594;2022-12-18T10:15:26;-3.80;99.90
7445;DHT22;3764;48.126;11.594;2022-12-18T10:18:01;-3.90;99.90
7445;DHT22;3764;48.126;11.594;2022-12-18T10:20:35;-3.90;99.90
7445;DHT22;3764;48.126;11.594;2022-12-18T10:23:13;-3.80;99.90
7445;DHT22;3764;48.126;11.594;2022-12-18T10:25:50;-3.80;99.90
7445;DHT22;3764;48.126;11.594;2022-12-18T10:28:21;-3.90;99.90
7445;DHT22;3764;48.126;11.594;2022-12-18T10:30:49;-4.00;99.90
7445;DHT22;3764;48.126;11.594;2022-12-18T10:33:18;-4.10;99.90
7445;DHT22;3764;48.126;11.594;2022-12-18T10:35:45;-4.20;99.90
7445;DHT22;3764;48.126;11.594;2022-12-18T10:38:25;-4.20;99.90
7445;DHT22;3764;48.126;11.594;2022-12-18T10:40:56;-4.30;99.90
7445;DHT22;3764;48.126;11.594;2022-12-18T10:43:25;-4.30;99.90
7445;DHT22;3764;48.126;11.594;2022-12-18T10:46:02;-4.30;99.90
7445;DHT22;3764;48.126;11.594;2022-12-18T10:48:31;-4.30;99.90
7445;DHT22;3764;48.126;11.594;2022-12-18T10:50:58;-4.40;99.90
7445;DHT22;3764;48.126;11.594;2022-12-18T10:53:28;-4.40;99.90
7445;DHT22;3764;48.126;11.594;2022-12-18T10:55:58;-4.40;99.90
7445;DHT22;3764;48.126;11.594;2022-12-18T10:58:29;-4.40;99.90
7445;DHT22;3764;48.126;11.594;2022-12-18T11:01:10;-4.30;99.90
7445;DHT22;3764;48.126;11.594;2022-12-18T11:03:39;-4.20;99.90
7445;DHT22;3764;48.126;11.594;2022-12-18T11:06:09;-4.20;99.90
7445;DHT22;3764;48.126;11.594;2022-12-18T11:08:38;-4.20;99.90
7445;DHT22;3764;48.126;11.594;2022-12-18T11:11:19;-4.20;99.90
7445;DHT22;3764;48.126;11.594;2022-12-18T11:13:57;-4.20;99.90
7445;DHT22;3764;48.126;11.594;2022-12-18T11:16:26;-4.20;99.90
7445;DHT22;3764;48.126;11.594;2022-12-18T11:18:54;-4.10;99.90
7445;DHT22;3764;48.126;11.594;2022-12-18T11:21:22;-4.00;99.90
7445;DHT22;3764;48.126;11.594;2022-12-18T11:23:51;-3.90;99.90
7445;DHT22;3764;48.126;11.594;2022-12-18T11:26:20;-3.80;99.90
7445;DHT22;3764;48.126;11.594;2022-12-18T11:28:50;-3.70;99.90
7445;DHT22;3764;48.126;11.594;2022-12-18T11:31:21;-3.70;99.90
7445;DHT22;3764;48.126;11.594;2022-12-18T11:34:00;-3.60;99.90
7445;DHT22;3764;48.126;11.594;2022-12-18T11:36:31;-3.60;99.90
7445;DHT22;3764;48.126;11.594;2022-12-18T11:39:03;-3.60;99.90
7445;DHT22;3764;48.126;11.594;2022-12-18T11:41:39;-3.50;99.90
7445;DHT22;3764;48.126;11.594;2022-12-18T11:44:28;-3.50;99.90
7445;DHT22;3764;48.126;11.594;2022-12-18T11:47:00;-3.60;99.90
7445;DHT22;3764;48.126;11.594;2022-12-18T11:49:32;-3.70;99.90
7445;DHT22;3764;48.126;11.594;2022-12-18T11:52:03;-3.80;99.90
7445;DHT22;3764;48.126;11.594;2022-12-18T11:54:31;-3.80;99.90
7445;DHT22;3764;48.126;11.594;2022-12-18T11:57:05;-3.80;99.90
7445;DHT22;3764;48.126;11.594;2022-12-18T11:59:39;-3.80;99.90
7445;DHT22;3764;48.126;11.594;2022-12-18T12:02:34;-3.70;99.90
7445;DHT22;3764;48.126;11.594;2022-12-18T12:05:18;-3.50;99.90
7445;DHT22;3764;48.126;11.594;2022-12-18T12:07:52;-3.60;99.90
7445;DHT22;3764;48.126;11.594;2022-12-18T12:10:30;-3.70;99.90
7445;DHT22;3764;48.126;11.594;2022-12-18T12:13:15;-3.80;99.90
7445;DHT22;3764;48.126;11.594;2022-12-18T12:15:49;-3.80;99.90
7445;DHT22;3764;48.126;11.594;2022-12-18T12:18:27;-3.90;99.90
7445;DHT22;3764;48.126;11.594;2022-12-18T12:21:04;-3.90;99.90
7445;DHT22;3764;48.126;11.594;2022-12-18T12:23:40;-3.90;99.90
7445;DHT22;3764;48.126;11.594;2022-12-18T12:26:12;-3.90;99.90
7445;DHT22;3764;48.126;11.594;2022-12-18T12:29:01;-3.90;99.90
7445;DHT22;3764;48.126;11.594;2022-12-18T12:31:40;-4.00;99.90
7445;DHT22;3764;48.126;11.594;2022-12-18T12:34:15;-3.90;99.90
7445;DHT22;3764;48.126;11.594;2022-12-18T12:36:55;-3.90;99.90
7445;DHT22;3764;48.126;11.594;2022-12-18T12:39:31;-3.90;99.90
7445;DHT22;3764;48.126;11.594;2022-12-18T12:42:00;-4.00;99.90
7445;DHT22;3764;48.126;11.594;2022-12-18T12:44:51;-4.00;99.90
7445;DHT22;3764;48.126;11.594;2022-12-18T12:47:24;-4.00;99.90
7445;DHT22;3764;48.126;11.594;2022-12-18T12:49:54;-4.10;99.90
7445;DHT22;3764;48.126;11.594;2022-12-18T12:52:31;-4.20;99.90
7445;DHT22;3764;48.126;11.594;2022-12-18T12:55:00;-4.20;99.90
7445;DHT22;3764;48.126;11.594;2022-12-18T12:57:33;-4.20;99.90
7445;DHT22;3764;48.126;11.594;2022-12-18T13:00:07;-4.10;99.90
7445;DHT22;3764;48.126;11.594;2022-12-18T13:02:42;-3.90;99.90
7445;DHT22;3764;48.126;11.594;2022-12-18T13:05:20;-3.90;99.90
7445;DHT22;3764;48.126;11.594;2022-12-18T13:07:54;-3.80;99.90
7445;DHT22;3764;48.126;11.594;2022-12-18T13:10:25;-3.70;99.90
7445;DHT22;3764;48.126;11.594;2022-12-18T13:12:57;-3.70;99.90
7445;DHT22;3764;48.126;11.594;2022-12-18T13:15:29;-3.70;99.90
7445;DHT22;3764;48.126;11.594;2022-12-18T13:18:15;-3.80;99.90
7445;DHT22;3764;48.126;11.594;2022-12-18T13:20:44;-3.80;99.90
7445;DHT22;3764;48.126;11.594;2022-12-18T13:23:34;-3.90;99.90
7445;DHT22;3764;48.126;11.594;2022-12-18T13:26:30;-3.90;99.90
7445;DHT22;3764;48.126;11.594;2022-12-18T13:28:59;-3.90;99.90
7445;DHT22;3764;48.126;11.594;2022-12-18T13:34:32;-3.90;99.90
7445;DHT22;3764;48.126;11.594;2022-12-18T13:39:56;-4.00;99.90
7445;DHT22;3764;48.126;11.594;2022-12-18T13:42:38;-4.00;99.90
7445;DHT22;3764;48.126;11.594;2022-12-18T13:45:44;-4.10;99.90
7445;DHT22;3764;48.126;11.594;2022-12-18T13:48:23;-4.10;99.90
7445;DHT22;3764;48.126;11.594;2022-12-18T13:50:59;-4.00;99.90
7445;DHT22;3764;48.126;11.594;2022-12-18T13:53:29;-3.90;99.90
7445;DHT22;3764;48.126;11.594;2022-12-18T13:55:57;-3.80;99.90
7445;DHT22;3764;48.126;11.594;2022-12-18T13:58:25;-3.70;99.90
7445;DHT22;3764;48.126;11.594;2022-12-18T14:00:52;-3.60;99.90
7445;DHT22;3764;48.126;11.594;2022-12-18T14:03:22;-3.50;99.90
7445;DHT22;3764;48.126;11.594;2022-12-18T14:05:58;-3.40;99.90
7445;DHT22;3764;48.126;11.594;2022-12-18T14:08:29;-3.50;99.90
7445;DHT22;3764;48.126;11.594;2022-12-18T14:10:59;-3.70;99.90
7445;DHT22;3764;48.126;11.594;2022-12-18T14:13:30;-3.80;99.90
7445;DHT22;3764;48.126;11.594;2022-12-18T14:15:57;-3.80;99.90
7445;DHT22;3764;48.126;11.594;2022-12-18T14:18:31;-3.80;99.90
7445;DHT22;3764;48.126;11.594;2022-12-18T14:21:03;-3.70;99.90
7445;DHT22;3764;48.126;11.594;2022-12-18T14:23:34;-3.80;99.90
7445;DHT22;3764;48.126;11.594;2022-12-18T14:26:03;-3.80;99.90
7445;DHT22;3764;48.126;11.594;2022-12-18T14:28:30;-3.70;99.90
7445;DHT22;3764;48.126;11.594;2022-12-18T14:30:57;-3.70;99.90
7445;DHT22;3764;48.126;11.594;2022-12-18T14:33:26;-3.60;99.90
7445;DHT22;3764;48.126;11.594;2022-12-18T14:35:56;-3.50;99.90
7445;DHT22;3764;48.126;11.594;2022-12-18T14:38:27;-3.50;99.90
7445;DHT22;3764;48.126;11.594;2022-12-18T14:40:57;-3.50;99.90
7445;DHT22;3764;48.126;11.594;2022-12-18T14:43:24;-3.40;99.90
7445;DHT22;3764;48.126;11.594;2022-12-18T14:45:52;-3.30;99.90
7445;DHT22;3764;48.126;11.594;2022-12-18T14:48:24;-3.30;99.90
7445;DHT22;3764;48.126;11.594;2022-12-18T14:51:00;-3.30;99.90
7445;DHT22;3764;48.126;11.594;2022-12-18T14:53:40;-3.30;99.90
7445;DHT22;3764;48.126;11.594;2022-12-18T14:56:16;-3.30;99.90
7445;DHT22;3764;48.126;11.594;2022-12-18T14:58:46;-3.40;99.90
7445;DHT22;3764;48.126;11.594;2022-12-18T15:01:23;-3.40;99.90
7445;DHT22;3764;48.126;11.594;2022-12-18T15:03:51;-3.50;99.90
7445;DHT22;3764;48.126;11.594;2022-12-18T15:06:26;-3.50;99.90
7445;DHT22;3764;48.126;11.594;2022-12-18T15:08:55;-3.60;99.90
7445;DHT22;3764;48.126;11.594;2022-12-18T15:14:37;-3.50;99.90
7445;DHT22;3764;48.126;11.594;2022-12-18T15:17:14;-3.50;99.90
7445;DHT22;3764;48.126;11.594;2022-12-18T15:19:43;-3.50;99.90
7445;DHT22;3764;48.126;11.594;2022-12-18T15:22:23;-3.60;99.90
7445;DHT22;3764;48.126;11.594;2022-12-18T15:24:53;-3.60;99.90
7445;DHT22;3764;48.126;11.594;2022-12-18T15:27:27;-3.60;99.90
7445;DHT22;3764;48.126;11.594;2022-12-18T15:30:21;-3.70;99.90
7445;DHT22;3764;48.126;11.594;2022-12-18T15:32:49;-3.80;99.90
7445;DHT22;3764;48.126;11.594;2022-12-18T15:35:20;-3.90;99.90
7445;DHT22;3764;48.126;11.594;2022-12-18T15:37:48;-4.10;99.90
7445;DHT22;3764;48.126;11.594;2022-12-18T15:40:18;-4.20;99.90
7445;DHT22;3764;48.126;11.594;2022-12-18T15:42:52;-4.30;99.90
7445;DHT22;3764;48.126;11.594;2022-12-18T15:45:37;-4.30;99.90
7445;DHT22;3764;48.126;11.594;2022-12-18T15:48:15;-4.40;99.90
7445;DHT22;3764;48.126;11.594;2022-12-18T15:50:44;-4.40;99.90
7445;DHT22;3764;48.126;11.594;2022-12-18T15:55:42;-4.40;99.90
7445;DHT22;3764;48.126;11.594;2022-12-18T15:58:26;-4.40;99.90
7445;DHT22;3764;48.126;11.594;2022-12-18T16:00:55;-4.40;99.90
7445;DHT22;3764;48.126;11.594;2022-12-18T16:03:23;-4.50;99.90
7445;DHT22;3764;48.126;11.594;2022-12-18T16:05:50;-4.50;99.90
7445;DHT22;3764;48.126;11.594;2022-12-18T16:08:17;-4.50;99.90
7445;DHT22;3764;48.126;11.594;2022-12-18T16:10:45;-4.60;99.90
7445;DHT22;3764;48.126;11.594;2022-12-18T16:13:20;-4.60;99.90
7445;DHT22;3764;48.126;11.594;2022-12-18T16:15:48;-4.60;99.90
7445;DHT22;3764;48.126;11.594;2022-12-18T16:18:15;-4.60;99.90